Pagrindinis puslapis
METAR-TAF:

METAR-TAF

Oro uostai :

Ispartos Suleimano Demirelio oro uostas

Isparta, Turkija

platuma: 37-51N, ilguma: 030-22E, Aukštis: 864 m

Dabartinis oras

Ataskaita buvo paskelbta 22 minutes, ne 16:50 UTC
Vėjas 6 kt iš Šiaurės/Šiaurės Vakarų
Temperatūra 2°C
Drėgmė 75%
Slėgis 1025 hPa
Matomumas 10 km arba daugiau
nėra debesų žemiau 1500 m ir nėra kamuolinių lietaus debesų

METAR: LTFC 221650Z 34006KT CAVOK 02/M02 Q1025 RMK RWY23 34005KT 320V040

Laikas: 20:12 (17:12 UTC)

Prognozė

Ataskaita buvo paskelbta 6 valandos ir 32 minutes, ne 10:40 UTC
Prognozė galioja nuo 22 metu 12 UTC su 23 metu 12 UTC
Vėjas 2 kt nuo kintamojo kryptimis
Matomumas 10 km arba daugiau
Mažai debesys ne aukštis 3500 ft
Su prošvaistėmis ne aukštis 20000 ft
Tapsmas
nuo 22 metu 14 UTC su 22 metu 18 UTC
Matomumas 10 km arba daugiau
nėra debesų žemiau 1500 m ir nėra kamuolinių lietaus debesų

TAF: LTFC 221040Z 2212/2312 VRB02KT 9999 FEW035 BKN200 BECMG 2214/2218 CAVOK

Orai ataskaitas ir orų prognozės (METAR, TAF).

turimą stotys yra geltonos ir raudonos taškus žemėlapyje.

Perkelti pele per norėdami pamatyti stoties vardą.

Tada spustelėkite, norėdami matyti oro stebėjimo ir prognozės.

Norėdami pakeisti žemėlapį: spustelėkite ant žalios mygtukų su juodo kryžiaus žemyn,; žalią mygtuką su brūkšneliu, jei norite nutolinti; arba žalių rodyklių gretimoms žemėlapius.


METAR-TAF: